createdAt,value
2019-01-05T00:01:17.940Z,0.20
2019-01-05T00:04:15.657Z,0.30
2019-01-05T00:06:59.881Z,0.30
2019-01-05T00:10:05.039Z,0.20
2019-01-05T00:12:52.780Z,0.30
2019-01-05T00:15:58.571Z,0.30
2019-01-05T00:18:46.488Z,0.30
2019-01-05T00:21:34.685Z,0.30
2019-01-05T00:24:22.556Z,0.40
2019-01-05T00:27:10.636Z,0.30
2019-01-05T00:30:10.153Z,0.20
2019-01-05T00:33:15.036Z,0.30
2019-01-05T00:36:32.041Z,0.30
2019-01-05T00:39:22.415Z,0.30
2019-01-05T00:42:14.136Z,0.30
2019-01-05T00:45:04.195Z,0.30
2019-01-05T00:47:56.132Z,0.20
2019-01-05T00:50:47.835Z,0.20
2019-01-05T00:53:36.497Z,0.20
2019-01-05T00:56:25.751Z,0.20
2019-01-05T00:59:14.309Z,0.20
2019-01-05T01:02:12.338Z,0.20
2019-01-05T01:05:00.219Z,0.20
2019-01-05T01:07:57.658Z,0.10
2019-01-05T01:10:49.773Z,0.20
2019-01-05T01:13:37.450Z,0.20
2019-01-05T01:16:38.740Z,0.20
2019-01-05T01:19:30.757Z,0.00
2019-01-05T01:22:11.819Z,0.10
2019-01-05T01:24:59.134Z,0.10
2019-01-05T01:27:48.166Z,0.00
2019-01-05T01:30:45.722Z,0.00
2019-01-05T01:33:41.716Z,0.00
2019-01-05T01:36:22.891Z,0.00
2019-01-05T01:39:17.136Z,0.00
2019-01-05T01:42:15.019Z,0.00
2019-01-05T01:45:04.431Z,0.00
2019-01-05T01:48:06.072Z,-0.10
2019-01-05T01:50:55.990Z,0.00
2019-01-05T01:53:47.384Z,0.00
2019-01-05T01:56:35.699Z,0.00
2019-01-05T02:00:00.865Z,0.00
2019-01-05T02:02:57.162Z,0.00
2019-01-05T02:05:59.489Z,0.00
2019-01-05T02:08:51.735Z,-0.10
2019-01-05T02:11:57.908Z,0.00
2019-01-05T02:15:06.196Z,0.00
2019-01-05T02:18:23.404Z,0.00
2019-01-05T02:21:42.995Z,0.00
2019-01-05T02:25:30.564Z,0.00
2019-01-05T02:29:34.464Z,0.00
2019-01-05T02:33:20.326Z,0.00
2019-01-05T02:36:45.054Z,0.10
2019-01-05T02:40:29.321Z,0.00
2019-01-05T02:44:45.414Z,0.10
2019-01-05T02:48:17.788Z,0.10
2019-01-05T02:51:53.701Z,0.10
2019-01-05T02:55:29.206Z,0.10
2019-01-05T02:59:25.240Z,0.10
2019-01-05T03:02:57.913Z,0.20
2019-01-05T03:06:33.368Z,0.30
2019-01-05T03:10:16.835Z,0.30
2019-01-05T03:14:31.437Z,0.30
2019-01-05T03:18:25.280Z,0.30
2019-01-05T03:22:15.012Z,0.30
2019-01-05T03:25:54.297Z,0.30
2019-01-05T03:29:50.977Z,0.30
2019-01-05T03:33:35.277Z,0.30
2019-01-05T03:37:34.862Z,0.30
2019-01-05T03:41:14.202Z,0.30
2019-01-05T03:44:54.836Z,0.30
2019-01-05T03:48:32.785Z,0.30
2019-01-05T03:52:16.877Z,0.30
2019-01-05T03:56:27.584Z,0.30
2019-01-05T04:00:08.061Z,0.30
2019-01-05T04:03:55.062Z,0.30
2019-01-05T04:07:31.154Z,0.30
2019-01-05T04:11:19.659Z,0.20
2019-01-05T04:15:09.490Z,0.20
2019-01-05T04:19:33.253Z,0.20
2019-01-05T04:23:40.926Z,0.20
2019-01-05T04:27:46.241Z,0.10
2019-01-05T04:31:48.052Z,0.10
2019-01-05T04:35:31.701Z,0.20
2019-01-05T04:39:39.744Z,0.10
2019-01-05T04:43:33.928Z,0.10
2019-01-05T04:47:14.742Z,0.10
2019-01-05T04:50:43.864Z,0.10
2019-01-05T04:54:12.365Z,0.10
2019-01-05T04:58:08.710Z,0.10
2019-01-05T05:02:16.014Z,0.10
2019-01-05T05:05:52.204Z,0.20
2019-01-05T05:09:34.676Z,0.10
2019-01-05T05:13:20.316Z,0.20
2019-01-05T05:17:32.720Z,0.20
2019-01-05T05:21:32.530Z,0.20
2019-01-05T05:24:56.580Z,0.20
2019-01-05T05:28:51.098Z,0.30
2019-01-05T05:32:54.415Z,0.20
2019-01-05T05:36:44.186Z,0.30
2019-01-05T05:40:59.361Z,0.30
2019-01-05T05:44:37.633Z,0.30
2019-01-05T05:48:41.586Z,0.20
2019-01-05T05:52:50.336Z,0.30
2019-01-05T05:56:19.652Z,0.10
2019-01-05T05:59:59.488Z,0.20
2019-01-05T06:03:41.805Z,0.20
2019-01-05T06:07:50.770Z,0.20
2019-01-05T06:11:58.275Z,0.30
2019-01-05T06:15:47.038Z,0.30
2019-01-05T06:19:28.311Z,0.20
2019-01-05T06:23:36.818Z,0.30
2019-01-05T06:27:33.491Z,0.30
2019-01-05T06:31:47.923Z,0.20
2019-01-05T06:35:30.950Z,0.30
2019-01-05T06:39:12.184Z,0.20
2019-01-05T06:42:40.357Z,0.30
2019-01-05T06:46:19.036Z,0.30
2019-01-05T06:50:28.307Z,0.30
2019-01-05T06:54:44.179Z,0.40
2019-01-05T06:58:33.462Z,0.30
2019-01-05T07:02:01.628Z,0.40
2019-01-05T07:05:29.456Z,0.30
2019-01-05T07:09:23.683Z,0.40
2019-01-05T07:13:25.794Z,0.40
2019-01-05T07:17:21.008Z,0.50
2019-01-05T07:21:08.673Z,0.50
2019-01-05T07:24:57.945Z,0.40
2019-01-05T07:29:08.600Z,0.50
2019-01-05T07:32:59.207Z,0.50
2019-01-05T07:36:45.815Z,0.40
2019-01-05T07:40:46.384Z,0.50
2019-01-05T07:45:08.539Z,0.50
2019-01-05T07:49:05.484Z,0.60
2019-01-05T07:52:46.716Z,0.50
2019-01-05T07:56:49.768Z,0.50
2019-01-05T08:00:19.708Z,0.60
2019-01-05T08:04:04.621Z,0.60
2019-01-05T08:07:57.666Z,0.60
2019-01-05T08:12:00.857Z,0.50
2019-01-05T08:16:15.544Z,0.50
2019-01-05T08:20:39.989Z,0.40
2019-01-05T08:24:37.223Z,0.50
2019-01-05T08:28:35.080Z,0.50
2019-01-05T08:32:31.685Z,0.50
2019-01-05T08:36:30.121Z,0.50
2019-01-05T08:40:28.257Z,0.50
2019-01-05T08:44:18.888Z,0.50
2019-01-05T08:48:17.985Z,0.50
2019-01-05T08:52:04.424Z,0.50
2019-01-05T08:55:45.923Z,0.50
2019-01-05T08:59:18.711Z,0.50
2019-01-05T09:03:17.043Z,0.50
2019-01-05T09:07:06.462Z,0.50
2019-01-05T09:10:56.805Z,0.50
2019-01-05T09:14:45.423Z,0.50
2019-01-05T09:18:37.523Z,0.40
2019-01-05T09:22:13.921Z,0.50
2019-01-05T09:25:44.397Z,0.50
2019-01-05T09:29:32.052Z,0.60
2019-01-05T09:33:14.144Z,0.50
2019-01-05T09:36:54.258Z,0.50
2019-01-05T09:41:10.212Z,0.60
2019-01-05T09:44:45.087Z,0.50
2019-01-05T09:48:31.631Z,0.50
2019-01-05T09:52:08.996Z,0.60
2019-01-05T09:55:50.004Z,0.60
2019-01-05T09:59:33.829Z,0.60
2019-01-05T10:03:40.226Z,0.60
2019-01-05T10:07:17.131Z,0.60
2019-01-05T10:11:14.806Z,0.60
2019-01-05T10:15:14.518Z,1.50
2019-01-05T10:19:18.944Z,1.10
2019-01-05T10:23:27.171Z,0.90
2019-01-05T10:27:09.385Z,0.70
2019-01-05T10:30:49.867Z,0.70
2019-01-05T10:34:38.890Z,0.70
2019-01-05T10:38:44.254Z,0.60
2019-01-05T10:42:46.162Z,0.70
2019-01-05T10:46:50.558Z,0.80
2019-01-05T10:50:37.644Z,0.70
2019-01-05T10:54:33.748Z,0.70
2019-01-05T10:58:16.192Z,0.90
2019-01-05T11:02:18.914Z,0.90
2019-01-05T11:06:41.282Z,0.80
2019-01-05T11:10:36.796Z,0.90
2019-01-05T11:14:19.689Z,0.90
2019-01-05T11:18:06.174Z,1.00
2019-01-05T11:22:16.666Z,1.00
2019-01-05T11:26:21.100Z,0.90
2019-01-05T11:30:24.425Z,0.90
2019-01-05T11:33:59.196Z,1.00
2019-01-05T11:37:29.512Z,1.00
2019-01-05T11:41:17.993Z,1.00
2019-01-05T11:45:09.006Z,1.00
2019-01-05T11:48:38.391Z,1.10
2019-01-05T11:52:32.718Z,0.90
2019-01-05T11:56:22.976Z,1.00
2019-01-05T12:00:23.849Z,1.00
2019-01-05T12:04:41.790Z,1.00
2019-01-05T12:08:50.735Z,1.10
2019-01-05T12:12:52.228Z,1.00
2019-01-05T12:16:43.179Z,1.00
2019-01-05T12:20:43.752Z,1.10
2019-01-05T12:24:22.386Z,1.00
2019-01-05T12:27:58.141Z,1.10
2019-01-05T12:31:41.056Z,1.00
2019-01-05T12:35:22.766Z,1.00
2019-01-05T12:39:22.958Z,1.00
2019-01-05T12:43:02.045Z,1.00
2019-01-05T12:47:03.074Z,1.00
2019-01-05T12:51:12.609Z,1.00
2019-01-05T12:55:17.923Z,1.00
2019-01-05T12:59:19.767Z,1.00
2019-01-05T13:03:03.954Z,1.10
2019-01-05T13:07:15.936Z,1.00
2019-01-05T13:11:10.433Z,0.90
2019-01-05T13:15:10.747Z,0.90
2019-01-05T13:18:58.692Z,1.00
